Time;durP1;ratioP1;P1;durP2;ratioP2;P2;SDS_P1;SDS_P2;PMS_P1;PMS_P2;Temp;Humidity;BMP_temperature;BMP_pressure;BME280_temperature;BME280_humidity;BME280_pressure;Samples;Min_cycle;Max_cycle;Signal;HPM_P1;HPM_P2
2021/12/26 00:02:51;;;;;;;19.63;10.63;;;;;;;20.09;44.04;96279.59;10368809;28;20037;-50
2021/12/26 00:08:10;;;;;;;17.23;10.00;;;;;;;20.08;43.99;96280.75;10386396;28;20143;-50
2021/12/26 00:13:30;;;;;;;19.38;9.77;;;;;;;20.05;44.00;96270.59;10407605;28;20054;-50
2021/12/26 00:18:50;;;;;;;17.35;9.00;;;;;;;20.04;43.87;96266.31;10412952;28;20103;-51
2021/12/26 00:24:09;;;;;;;17.27;8.57;;;;;;;20.02;43.66;96266.66;10403061;28;20135;-50
2021/12/26 00:29:29;;;;;;;13.77;8.23;;;;;;;20.00;43.61;96273.53;10403754;28;20052;-50
2021/12/26 00:34:50;;;;;;;17.10;8.45;;;;;;;19.99;43.59;96269.25;10404527;28;20064;-50
2021/12/26 00:40:12;;;;;;;15.75;7.97;;;;;;;19.97;43.53;96266.88;10403478;28;20393;-53
2021/12/26 00:45:31;;;;;;;15.55;8.25;;;;;;;19.94;43.52;96271.06;10417179;28;20045;-50
2021/12/26 00:50:51;;;;;;;13.32;7.07;;;;;;;19.93;43.38;96266.78;10403084;28;20046;-51
2021/12/26 00:56:12;;;;;;;12.88;8.13;;;;;;;19.92;43.33;96269.81;10403563;28;20102;-50
2021/12/26 01:01:32;;;;;;;14.07;7.40;;;;;;;19.90;43.29;96278.28;10416687;28;20072;-50
2021/12/26 01:06:52;;;;;;;15.27;7.13;;;;;;;19.87;43.32;96278.94;10391150;28;20050;-50
2021/12/26 01:12:14;;;;;;;11.98;6.93;;;;;;;19.86;43.32;96271.97;10345429;28;20053;-50
2021/12/26 01:17:39;;;;;;;13.18;7.35;;;;;;;19.85;43.25;96275.00;10359617;28;20034;-50
2021/12/26 01:23:05;;;;;;;13.82;7.40;;;;;;;19.82;43.15;96268.38;10362756;28;20709;-50
2021/12/26 01:28:29;;;;;;;11.52;6.63;;;;;;;19.79;43.05;96271.72;10341174;28;20077;-53
2021/12/26 01:33:59;;;;;;;12.90;6.60;;;;;;;19.77;43.02;96268.59;10346580;28;20058;-53
2021/12/26 01:39:35;;;;;;;15.20;6.93;;;;;;;19.75;42.97;96266.22;10346999;28;20042;-51
2021/12/26 01:45:15;;;;;;;11.77;6.32;;;;;;;19.74;42.80;96270.06;10340926;28;20054;-50
2021/12/26 01:50:55;;;;;;;10.98;6.68;;;;;;;19.71;42.91;96265.31;10365511;28;20030;-50
2021/12/26 01:56:16;;;;;;;12.38;6.63;;;;;;;19.70;42.84;96262.94;10354248;28;20161;-51
2021/12/26 02:01:35;;;;;;;8.35;5.57;;;;;;;19.68;42.93;96259.75;10355111;28;20457;-51
2021/12/26 02:06:56;;;;;;;10.40;6.30;;;;;;;19.66;42.85;96257.41;10353569;28;20062;-50
2021/12/26 02:12:16;;;;;;;11.32;6.10;;;;;;;19.63;42.82;96257.31;10367344;28;20096;-50
2021/12/26 02:17:36;;;;;;;9.52;5.78;;;;;;;19.62;42.83;96267.31;10353157;28;20100;-51
2021/12/26 02:23:02;;;;;;;10.80;6.25;;;;;;;19.60;42.87;96260.66;10366529;28;20044;-50
2021/12/26 02:28:22;;;;;;;9.13;5.38;;;;;;;19.58;42.72;96266.41;10366808;28;20049;-51
2021/12/26 02:33:42;;;;;;;8.48;5.60;;;;;;;19.56;42.72;96272.16;10352788;28;20060;-50
2021/12/26 02:39:03;;;;;;;8.38;5.38;;;;;;;19.55;42.74;96270.56;10367867;28;20046;-51
2021/12/26 02:44:23;;;;;;;8.82;5.45;;;;;;;19.52;42.58;96268.56;10366526;28;20048;-52
2021/12/26 02:49:42;;;;;;;8.10;5.20;;;;;;;19.50;42.57;96270.81;10380222;28;20477;-49
2021/12/26 02:55:03;;;;;;;10.13;5.50;;;;;;;19.49;42.64;96280.03;10351941;28;20081;-52
2021/12/26 03:00:25;;;;;;;8.80;5.00;;;;;;;19.47;42.60;96270.69;10344186;28;20049;-50
2021/12/26 03:05:46;;;;;;;7.78;5.30;;;;;;;19.45;42.51;96272.94;10349824;28;20050;-51
2021/12/26 03:11:06;;;;;;;7.65;5.20;;;;;;;19.42;42.43;96271.69;10378603;28;20076;-49
2021/12/26 03:16:26;;;;;;;8.38;4.40;;;;;;;19.42;42.39;96273.59;10365061;28;20049;-50
2021/12/26 03:21:51;;;;;;;8.02;4.85;;;;;;;19.41;42.32;96272.03;10350930;28;20079;-53
2021/12/26 03:27:12;;;;;;;7.63;4.80;;;;;;;19.38;42.36;96286.97;10365825;28;20041;-50
2021/12/26 03:32:32;;;;;;;7.20;4.32;;;;;;;19.36;42.35;96283.81;10351043;28;20087;-50
2021/12/26 03:37:52;;;;;;;7.35;4.30;;;;;;;19.33;42.16;96277.19;10344489;28;20042;-50
2021/12/26 03:43:30;;;;;;;6.80;4.60;;;;;;;19.32;42.34;96285.63;10365441;28;20609;-51
2021/12/26 03:48:50;;;;;;;7.32;4.47;;;;;;;19.30;42.20;96280.56;10378067;28;20045;-50
2021/12/26 03:54:10;;;;;;;7.80;4.35;;;;;;;19.29;42.13;96289.00;10362875;28;20401;-50
2021/12/26 03:59:29;;;;;;;6.40;4.40;;;;;;;19.26;42.15;96292.38;10363339;28;20084;-50
2021/12/26 04:04:49;;;;;;;6.43;4.03;;;;;;;19.24;42.08;96290.00;10349325;28;20054;-49
2021/12/26 04:10:11;;;;;;;6.57;4.40;;;;;;;19.24;42.04;96289.22;10387712;28;20127;-50
2021/12/26 04:15:31;;;;;;;6.38;3.75;;;;;;;19.21;42.22;96279.88;10405006;28;20045;-51
2021/12/26 04:20:50;;;;;;;7.70;4.30;;;;;;;19.20;42.01;96282.91;10402014;28;20041;-52
2021/12/26 04:26:11;;;;;;;6.05;4.30;;;;;;;19.17;42.00;96287.06;10388727;28;20049;-50
2021/12/26 04:31:30;;;;;;;7.07;4.40;;;;;;;19.15;42.01;96287.41;10389167;28;20053;-50
2021/12/26 04:36:50;;;;;;;5.68;4.20;;;;;;;19.12;41.95;96276.47;10388613;28;20045;-50
2021/12/26 04:42:09;;;;;;;5.85;3.92;;;;;;;19.12;41.83;96281.88;10404181;28;20666;-49
2021/12/26 04:47:50;;;;;;;5.32;4.10;;;;;;;19.10;42.04;96282.19;10400378;28;20601;-50
2021/12/26 04:53:11;;;;;;;4.70;3.50;;;;;;;19.09;41.85;96287.91;10389333;28;20540;-49
2021/12/26 04:58:31;;;;;;;5.10;3.72;;;;;;;19.05;41.96;96274.31;10403383;28;20045;-50
2021/12/26 05:03:50;;;;;;;4.75;3.40;;;;;;;19.05;41.99;96281.63;10402137;28;20041;-50
2021/12/26 05:09:10;;;;;;;6.60;3.83;;;;;;;19.03;41.84;96286.56;10372109;28;20144;-50
2021/12/26 05:14:29;;;;;;;7.22;3.65;;;;;;;19.00;41.90;96293.41;10341509;28;20046;-50
2021/12/26 05:19:48;;;;;;;5.45;3.97;;;;;;;18.99;41.95;96288.34;10344282;28;20088;-50
2021/12/26 05:25:09;;;;;;;4.43;3.55;;;;;;;18.98;41.96;96292.19;10349797;28;20046;-49
2021/12/26 05:30:29;;;;;;;6.60;3.40;;;;;;;18.95;41.79;96296.31;10353845;28;20486;-50
2021/12/26 05:36:08;;;;;;;5.40;3.65;;;;;;;18.93;41.80;96285.06;10351637;28;20042;-50
2021/12/26 05:41:32;;;;;;;4.60;3.30;;;;;;;18.92;41.76;96289.69;10341208;28;20046;-52
2021/12/26 05:47:11;;;;;;;4.63;3.25;;;;;;;18.90;41.81;96291.13;10336980;28;20042;-51
2021/12/26 05:52:49;;;;;;;4.35;3.60;;;;;;;18.88;41.85;96291.47;10343142;28;20058;-50
2021/12/26 05:58:10;;;;;;;5.10;3.30;;;;;;;18.86;42.01;96291.00;10351791;28;20675;-50
2021/12/26 06:03:30;;;;;;;5.53;3.42;;;;;;;18.85;42.28;96289.41;10355430;28;20050;-50
2021/12/26 06:08:51;;;;;;;4.32;3.10;;;;;;;18.82;42.13;96283.88;10344864;28;20046;-50
2021/12/26 06:14:11;;;;;;;3.90;3.13;;;;;;;18.82;42.35;96291.97;10358657;28;20049;-52
2021/12/26 06:19:30;;;;;;;5.00;3.22;;;;;;;18.79;42.38;96298.81;10370527;28;20100;-51
2021/12/26 06:25:17;;;;;;;4.20;3.05;;;;;;;18.78;42.46;96289.16;10370791;28;20069;-52
2021/12/26 06:30:59;;;;;;;3.50;2.83;;;;;;;18.76;42.44;96280.59;10369812;28;20049;-49
2021/12/26 06:36:41;;;;;;;5.53;3.17;;;;;;;18.73;42.63;96279.34;10368968;28;20049;-51
2021/12/26 06:42:20;;;;;;;5.40;3.13;;;;;;;18.72;42.72;96282.38;10369988;28;20108;-50
2021/12/26 06:48:02;;;;;;;3.77;3.07;;;;;;;18.72;42.71;96285.09;10383783;28;20041;-50
2021/12/26 06:53:21;;;;;;;4.45;3.15;;;;;;;18.70;42.70;96282.72;10369794;28;20065;-50
2021/12/26 06:58:41;;;;;;;4.78;3.45;;;;;;;18.70;42.33;96287.28;10382534;28;20421;-50
2021/12/26 07:04:01;;;;;;;4.88;3.50;;;;;;;18.70;42.16;96295.38;10368398;28;20714;-49
2021/12/26 07:09:21;;;;;;;4.05;3.30;;;;;;;18.70;42.04;96292.69;10367347;28;20057;-50
2021/12/26 07:14:41;;;;;;;3.92;3.45;;;;;;;18.72;41.85;96290.47;10367579;28;20058;-49
2021/12/26 07:20:01;;;;;;;4.68;3.58;;;;;;;18.72;42.01;96299.34;10357171;28;20038;-49
2021/12/26 07:25:43;;;;;;;4.95;4.10;;;;;;;18.73;42.27;96300.91;10365621;28;20409;-49
2021/12/26 07:31:03;;;;;;;4.40;3.50;;;;;;;18.78;42.15;96322.31;10362753;28;20087;-50
2021/12/26 07:36:24;;;;;;;5.50;4.00;;;;;;;18.80;41.83;96327.41;10371743;28;20806;-50
2021/12/26 07:41:56;;;;;;;3.92;3.35;;;;;;;18.84;42.04;96325.63;10379979;28;20045;-49
2021/12/26 07:47:34;;;;;;;4.10;3.37;;;;;;;18.89;41.90;96340.84;10365168;28;20041;-50
2021/12/26 07:52:59;;;;;;;6.40;4.05;;;;;;;18.92;42.01;96343.66;10355806;28;20772;-50
2021/12/26 07:58:37;;;;;;;3.90;3.50;;;;;;;18.98;42.13;96346.16;10348332;28;20042;-50
2021/12/26 08:04:16;;;;;;;4.00;3.60;;;;;;;19.01;42.08;96346.28;10367249;28;20065;-50
2021/12/26 08:09:54;;;;;;;5.03;3.80;;;;;;;19.07;42.04;96347.69;10361405;28;20296;-50
2021/12/26 08:15:13;;;;;;;5.03;3.58;;;;;;;19.15;41.58;96340.59;10362926;28;20033;-50
2021/12/26 08:20:32;;;;;;;4.00;3.40;;;;;;;19.23;41.58;96352.44;10349180;28;20474;-50
2021/12/26 08:25:52;;;;;;;4.68;3.42;;;;;;;19.27;41.73;96347.97;10360128;28;20041;-50
2021/12/26 08:31:12;;;;;;;4.82;3.25;;;;;;;19.34;41.89;96343.56;10349677;28;20054;-50
2021/12/26 08:36:32;;;;;;;4.80;3.42;;;;;;;19.42;41.81;96346.53;10343137;28;20081;-49
2021/12/26 08:41:51;;;;;;;11.27;8.82;;;;;;;19.45;36.49;96349.34;10359938;28;20034;-50
2021/12/26 08:47:12;;;;;;;5.13;4.63;;;;;;;19.52;39.66;96348.81;10367651;28;20057;-52
2021/12/26 08:52:31;;;;;;;6.07;5.00;;;;;;;19.58;39.78;96349.38;10344871;28;20172;-50
2021/12/26 08:57:52;;;;;;;5.30;4.43;;;;;;;19.65;39.73;96344.22;10331614;28;20667;-52
2021/12/26 09:03:12;;;;;;;5.15;4.65;;;;;;;19.72;39.87;96347.97;10358428;28;20061;-50
2021/12/26 09:08:31;;;;;;;5.43;4.60;;;;;;;19.78;40.01;96353.97;10338845;28;20695;-50
2021/12/26 09:13:51;;;;;;;4.93;4.25;;;;;;;19.84;39.99;96347.22;10364758;28;20041;-53
2021/12/26 09:19:10;;;;;;;6.28;4.50;;;;;;;19.91;39.94;96350.13;10351055;28;20042;-50
2021/12/26 09:24:29;;;;;;;5.68;4.47;;;;;;;19.97;40.21;96341.78;10340519;28;20053;-49
2021/12/26 09:29:49;;;;;;;5.53;4.50;;;;;;;20.02;40.40;96349.69;10361967;28;20085;-48
2021/12/26 09:35:10;;;;;;;4.65;4.00;;;;;;;20.09;40.46;96355.31;10333408;28;20489;-50
2021/12/26 09:40:29;;;;;;;5.07;4.30;;;;;;;20.19;40.38;96359.47;10331114;28;20054;-51
2021/12/26 09:45:50;;;;;;;5.07;4.30;;;;;;;20.26;40.17;96363.19;10327565;28;20121;-50
2021/12/26 09:51:12;;;;;;;4.30;3.90;;;;;;;20.34;40.17;96356.09;10327102;28;20053;-50
2021/12/26 09:56:32;;;;;;;4.45;3.95;;;;;;;20.42;40.25;96351.69;10340728;28;20038;-50
2021/12/26 10:01:54;;;;;;;5.43;3.95;;;;;;;20.48;40.58;96342.22;10331336;28;20058;-50
2021/12/26 10:07:16;;;;;;;5.70;3.50;;;;;;;20.57;40.79;96336.69;10348102;28;20054;-55
2021/12/26 10:12:42;;;;;;;4.35;3.65;;;;;;;20.62;41.04;96328.34;10329560;28;20081;-53
2021/12/26 10:18:27;;;;;;;5.18;3.42;;;;;;;-146.19;100.00;65364.44;10357055;28;20046;-49
2021/12/26 10:23:47;;;;;;;8.93;3.72;;;;;;;20.76;40.85;96314.44;10383322;28;20498;-50
2021/12/26 10:29:09;;;;;;;8.80;3.38;;;;;;;20.80;40.67;96312.63;10370693;28;20061;-50
2021/12/26 10:34:35;;;;;;;8.88;3.70;;;;;;;20.82;40.94;96316.56;10381399;28;20049;-51
2021/12/26 10:39:59;;;;;;;6.13;3.35;;;;;;;20.85;41.02;96315.06;10352266;28;20046;-52
2021/12/26 10:45:21;;;;;;;5.07;3.70;;;;;;;20.88;41.08;96314.41;10341503;28;20456;-49
2021/12/26 10:50:41;;;;;;;5.57;3.38;;;;;;;20.91;41.24;96316.41;10379185;28;20046;-49
2021/12/26 10:56:08;;;;;;;5.10;3.10;;;;;;;20.93;41.31;96309.53;10367803;28;20050;-49
2021/12/26 11:01:41;;;;;;;5.07;3.28;;;;;;;20.95;41.52;96303.75;10379494;28;20052;-51
2021/12/26 11:07:08;;;;;;;6.75;3.70;;;;;;;20.78;29.73;96298.63;10365893;28;20061;-51
2021/12/26 11:12:40;;;;;;;6.77;6.07;;;;;;;20.62;32.16;96295.84;10365958;28;20141;-52
2021/12/26 11:18:03;;;;;;;5.10;4.05;;;;;;;20.70;37.16;96297.66;10353209;28;20130;-50
2021/12/26 11:23:30;;;;;;;6.85;4.35;;;;;;;20.78;36.87;96293.22;10364915;28;20049;-52
2021/12/26 11:28:52;;;;;;;5.68;4.28;;;;;;;20.82;37.21;96291.41;10364098;28;20420;-50
2021/12/26 11:34:11;;;;;;;5.53;4.13;;;;;;;20.86;37.38;96289.59;10375284;28;20038;-52
2021/12/26 11:39:37;;;;;;;5.00;4.30;;;;;;;20.87;37.57;96299.28;10364004;28;20051;-52
2021/12/26 11:45:30;;;;;;;5.70;4.43;;;;;;;20.88;37.86;96281.91;10350033;28;20057;-52
2021/12/26 11:51:20;;;;;;;5.38;3.78;;;;;;;20.88;38.02;96282.69;10363138;28;20054;-51
2021/12/26 11:57:13;;;;;;;5.97;4.07;;;;;;;20.89;38.13;96273.41;10365378;28;20062;-51
2021/12/26 12:02:33;;;;;;;6.70;4.40;;;;;;;20.87;38.42;96272.19;10350613;28;20038;-51
2021/12/26 12:07:59;;;;;;;6.97;3.75;;;;;;;20.86;38.52;96273.34;10364632;28;20065;-52
2021/12/26 12:13:39;;;;;;;5.93;3.88;;;;;;;20.87;38.62;96278.41;10364901;28;20062;-50
2021/12/26 12:19:07;;;;;;;5.20;3.50;;;;;;;20.87;38.69;96275.69;10353399;28;20053;-53
2021/12/26 12:24:29;;;;;;;5.23;3.47;;;;;;;20.85;38.82;96266.34;10362934;28;20049;-50
2021/12/26 12:29:50;;;;;;;5.63;3.80;;;;;;;20.84;38.90;96267.50;10364474;28;20554;-50
2021/12/26 12:35:16;;;;;;;4.97;3.53;;;;;;;20.83;39.00;96269.38;10363759;28;20050;-50
2021/12/26 12:40:39;;;;;;;5.13;3.55;;;;;;;20.84;39.08;96267.50;10351233;28;20049;-50
2021/12/26 12:46:04;;;;;;;4.78;3.40;;;;;;;20.82;39.11;96257.00;10363812;28;20054;-50
2021/12/26 12:51:27;;;;;;;4.05;3.40;;;;;;;20.82;39.07;96265.13;10375550;28;20038;-51
2021/12/26 12:56:46;;;;;;;4.43;3.30;;;;;;;20.82;39.27;96256.22;10376741;28;20044;-50
2021/12/26 13:02:26;;;;;;;6.60;3.38;;;;;;;20.81;39.24;96255.41;10362473;28;20058;-51
2021/12/26 13:07:56;;;;;;;3.60;3.17;;;;;;;20.80;39.26;96250.38;10362776;28;20658;-51
2021/12/26 13:13:17;;;;;;;4.07;3.38;;;;;;;20.78;39.31;96250.72;10363474;28;20061;-50
2021/12/26 13:18:40;;;;;;;3.53;3.22;;;;;;;20.78;39.29;96249.91;10363371;28;20053;-50
2021/12/26 13:23:59;;;;;;;4.63;3.47;;;;;;;20.78;39.25;96247.19;10363334;28;20078;-50
2021/12/26 13:29:19;;;;;;;3.58;3.22;;;;;;;20.76;39.33;96244.84;10363594;28;20056;-50
2021/12/26 13:34:38;;;;;;;3.97;3.45;;;;;;;20.76;39.30;96252.16;10362139;28;20567;-52
2021/12/26 13:39:59;;;;;;;3.80;3.13;;;;;;;20.72;39.35;96250.16;10362859;28;20058;-50
2021/12/26 13:45:33;;;;;;;3.35;3.03;;;;;;;20.72;39.41;96254.78;10365288;28;20053;-50
2021/12/26 13:50:52;;;;;;;3.55;3.20;;;;;;;20.70;39.46;96262.47;10370073;28;20060;-52
2021/12/26 13:56:12;;;;;;;3.38;2.75;;;;;;;20.68;39.44;96262.81;10382828;28;20042;-51
2021/12/26 14:01:32;;;;;;;3.45;2.90;;;;;;;20.66;39.44;96259.66;10350923;28;20050;-51
2021/12/26 14:06:52;;;;;;;3.72;2.97;;;;;;;20.65;39.58;96260.00;10369284;28;20058;-50
2021/12/26 14:12:30;;;;;;;3.28;2.72;;;;;;;20.62;39.54;96266.09;10382801;28;20042;-52
2021/12/26 14:18:03;;;;;;;;;;;;;;;20.60;39.51;96266.47;10369090;28;20046;-50
2021/12/26 14:23:26;;;;;;;4.30;3.03;;;;;;;20.58;39.58;96267.88;10382511;28;19976;-49
2021/12/26 14:28:47;;;;;;;3.90;3.08;;;;;;;20.57;39.59;96271.72;10369388;28;20046;-50
2021/12/26 14:34:13;;;;;;;3.85;2.90;;;;;;;20.55;39.68;96269.38;10367934;28;20046;-51
2021/12/26 14:39:54;;;;;;;3.75;2.83;;;;;;;20.53;39.64;96266.22;10368606;28;20050;-51
2021/12/26 14:45:14;;;;;;;4.60;2.90;;;;;;;20.52;39.76;96267.34;10367794;28;20096;-50
2021/12/26 14:50:34;;;;;;;3.45;2.72;;;;;;;20.49;39.65;96263.41;10380977;28;20042;-50
2021/12/26 14:56:06;;;;;;;4.47;3.30;;;;;;;20.46;39.69;96255.97;10324902;28;20042;-50
2021/12/26 15:01:35;;;;;;;3.55;2.88;;;;;;;20.45;39.76;96249.00;10344717;28;20464;-50
2021/12/26 15:06:55;;;;;;;3.92;2.88;;;;;;;20.45;39.78;96262.50;10366165;28;20053;-50
2021/12/26 15:12:26;;;;;;;3.65;2.50;;;;;;;20.42;39.74;96270.53;10356761;28;20683;-50
2021/12/26 15:18:22;;;;;;;3.10;2.67;;;;;;;20.41;39.74;96279.78;10367231;28;20054;-50
2021/12/26 15:23:41;;;;;;;2.92;2.60;;;;;;;20.40;39.86;96289.81;10366513;28;20041;-50
2021/12/26 15:29:02;;;;;;;3.90;2.63;;;;;;;20.37;39.74;96287.78;10365389;28;20567;-50
2021/12/26 15:34:22;;;;;;;3.42;2.78;;;;;;;20.37;39.85;96290.50;10366588;28;20115;-53
2021/12/26 15:39:42;;;;;;;3.83;2.78;;;;;;;20.35;39.75;96288.13;10370158;28;20046;-50
2021/12/26 15:45:03;;;;;;;2.60;2.40;;;;;;;20.33;39.79;96287.69;10379618;28;20033;-51
2021/12/26 15:50:23;;;;;;;2.60;2.40;;;;;;;20.31;39.78;96286.47;10365454;28;20053;-50
2021/12/26 15:55:43;;;;;;;3.80;2.85;;;;;;;20.30;39.67;96290.28;10365531;28;20092;-50
2021/12/26 16:01:03;;;;;;;3.05;2.63;;;;;;;20.27;39.96;96286.34;10364668;28;20045;-52
2021/12/26 16:06:22;;;;;;;3.28;2.38;;;;;;;20.26;39.98;96289.38;10365284;28;20057;-51
2021/12/26 16:11:43;;;;;;;2.85;2.42;;;;;;;20.23;39.99;96285.44;10364612;28;20052;-50
2021/12/26 16:17:02;;;;;;;4.35;2.90;;;;;;;20.22;39.96;96266.84;10377096;28;20492;-50
2021/12/26 16:22:22;;;;;;;2.80;2.50;;;;;;;20.20;40.11;96275.31;10364998;28;20058;-50
2021/12/26 16:27:44;;;;;;;2.80;2.50;;;;;;;20.18;39.97;96265.97;10363567;28;20053;-50
2021/12/26 16:33:09;;;;;;;2.88;2.47;;;;;;;20.15;40.04;96268.22;10365061;28;20050;-50
2021/12/26 16:38:29;;;;;;;3.60;3.00;;;;;;;20.14;40.04;96274.75;10363953;28;20045;-50
2021/12/26 16:43:49;;;;;;;3.33;2.60;;;;;;;20.11;39.91;96272.75;10364184;28;20054;-50
2021/12/26 16:49:09;;;;;;;3.42;2.60;;;;;;;20.09;40.03;96272.28;10363715;28;20052;-51
2021/12/26 16:54:28;;;;;;;3.67;3.05;;;;;;;20.07;39.96;96277.25;10363834;28;20061;-50
2021/12/26 16:59:48;;;;;;;3.22;2.70;;;;;;;20.06;40.06;96277.59;10376688;28;20046;-50
2021/12/26 17:05:07;;;;;;;3.30;3.00;;;;;;;20.03;40.14;96270.94;10363502;28;20096;-50
2021/12/26 17:10:27;;;;;;;3.05;2.42;;;;;;;20.01;40.09;96262.38;10342143;28;20049;-52
2021/12/26 17:15:46;;;;;;;3.28;2.75;;;;;;;19.99;40.24;96270.03;10375716;28;20053;-50
2021/12/26 17:21:06;;;;;;;4.82;2.78;;;;;;;19.98;40.03;96262.28;10367307;28;20536;-51
2021/12/26 17:26:26;;;;;;;3.20;2.90;;;;;;;19.95;40.07;96267.25;10370446;28;20054;-53
2021/12/26 17:31:46;;;;;;;3.10;2.80;;;;;;;19.94;40.17;96268.34;10384231;28;20045;-51
2021/12/26 17:37:05;;;;;;;3.10;2.60;;;;;;;19.92;40.17;96276.00;10369703;28;20050;-50
2021/12/26 17:42:25;;;;;;;2.78;2.58;;;;;;;19.91;40.25;96284.47;10365870;28;20060;-50
2021/12/26 17:47:48;;;;;;;3.28;2.97;;;;;;;19.90;40.27;96285.59;10368632;28;20050;-51
2021/12/26 17:53:07;;;;;;;3.53;2.80;;;;;;;19.88;40.34;96291.34;10383331;28;20053;-50
2021/12/26 17:58:29;;;;;;;3.08;2.78;;;;;;;19.87;40.14;96283.56;10329962;28;20061;-50
2021/12/26 18:03:48;;;;;;;3.42;3.10;;;;;;;19.85;40.17;96280.41;10369397;28;20049;-50
2021/12/26 18:09:09;;;;;;;3.10;2.80;;;;;;;19.83;40.27;96278.03;10369245;28;20058;-53
2021/12/26 18:14:29;;;;;;;3.17;2.88;;;;;;;19.81;40.33;96277.59;10369050;28;20406;-50
2021/12/26 18:19:49;;;;;;;3.42;2.78;;;;;;;19.79;40.31;96282.53;10369082;28;20536;-51
2021/12/26 18:25:09;;;;;;;3.00;2.70;;;;;;;19.77;40.31;96275.91;10376286;28;20049;-50
2021/12/26 18:30:28;;;;;;;3.75;3.03;;;;;;;19.75;40.31;96287.06;10368786;28;20557;-50
2021/12/26 18:35:48;;;;;;;4.25;3.10;;;;;;;19.75;40.25;96278.94;10368541;28;20563;-50
2021/12/26 18:41:08;;;;;;;3.42;2.75;;;;;;;19.75;40.31;96277.03;10381959;28;20046;-50
2021/12/26 18:46:30;;;;;;;3.13;2.80;;;;;;;19.75;40.35;96260.81;10368426;28;20097;-50
2021/12/26 18:51:50;;;;;;;4.10;3.30;;;;;;;19.77;40.21;96268.59;10353025;28;20050;-50
2021/12/26 18:57:09;;;;;;;3.13;2.83;;;;;;;19.77;40.28;96276.69;10367766;28;20042;-50
2021/12/26 19:02:28;;;;;;;2.85;2.65;;;;;;;19.78;40.15;96269.38;10352809;28;20498;-50
2021/12/26 19:07:48;;;;;;;2.88;2.67;;;;;;;19.79;40.25;96271.72;10367016;28;20672;-50
2021/12/26 19:13:08;;;;;;;2.92;2.65;;;;;;;19.81;40.19;96277.59;10380494;28;20674;-50
2021/12/26 19:18:27;;;;;;;3.22;2.92;;;;;;;19.84;40.17;96278.84;10366978;28;20461;-52
2021/12/26 19:23:48;;;;;;;3.30;3.00;;;;;;;19.85;40.05;96278.50;10366589;28;20456;-50
2021/12/26 19:29:08;;;;;;;3.63;3.00;;;;;;;19.88;39.98;96283.22;10366826;28;20511;-50
2021/12/26 19:34:30;;;;;;;3.35;2.90;;;;;;;19.91;40.06;96285.25;10376962;28;20042;-50
2021/12/26 19:39:50;;;;;;;4.00;3.60;;;;;;;19.93;40.13;96274.91;10365760;28;20099;-50
2021/12/26 19:45:10;;;;;;;4.18;2.97;;;;;;;19.98;39.97;96273.09;10365697;28;20046;-50
2021/12/26 19:50:29;;;;;;;3.47;3.13;;;;;;;20.02;39.98;96266.66;10366049;28;20058;-50
2021/12/26 19:55:51;;;;;;;3.13;2.83;;;;;;;20.06;39.87;96261.38;10365985;28;20061;-50
2021/12/26 20:01:11;;;;;;;3.72;3.17;;;;;;;20.10;39.76;96263.03;10365144;28;20081;-49
2021/12/26 20:06:31;;;;;;;3.83;3.03;;;;;;;20.14;39.66;96263.94;10364060;28;20057;-50
2021/12/26 20:11:51;;;;;;;4.07;3.10;;;;;;;20.19;39.89;96262.94;10365142;28;20523;-50
2021/12/26 20:17:10;;;;;;;3.42;3.00;;;;;;;20.23;39.74;96252.19;10364410;28;20049;-50
2021/12/26 20:22:31;;;;;;;3.55;3.20;;;;;;;20.27;39.63;96239.59;10376873;28;20045;-49
2021/12/26 20:27:51;;;;;;;3.50;3.20;;;;;;;20.30;39.41;96252.41;10377287;28;20092;-52
2021/12/26 20:33:11;;;;;;;3.97;3.33;;;;;;;20.34;39.47;96248.66;10364220;28;20529;-51
2021/12/26 20:38:36;;;;;;;3.70;3.10;;;;;;;20.38;39.42;96248.00;10377568;28;20049;-50
2021/12/26 20:43:56;;;;;;;3.50;3.20;;;;;;;20.40;39.27;96243.03;10363146;28;20387;-52
2021/12/26 20:49:15;;;;;;;3.42;3.03;;;;;;;20.43;39.43;96243.13;10340756;28;20452;-50
2021/12/26 20:54:36;;;;;;;3.88;3.47;;;;;;;20.44;39.32;96243.91;10363401;28;20050;-50
2021/12/26 20:59:55;;;;;;;3.72;3.30;;;;;;;20.47;39.28;96246.72;10362808;28;20042;-50
2021/12/26 21:05:18;;;;;;;4.22;3.55;;;;;;;20.49;39.23;96249.09;10362910;28;20124;-52
2021/12/26 21:10:38;;;;;;;3.80;3.50;;;;;;;20.50;39.15;96246.06;10363339;28;20050;-51
2021/12/26 21:15:58;;;;;;;3.65;3.30;;;;;;;20.52;39.19;96243.78;10362217;28;20493;-50
2021/12/26 21:21:17;;;;;;;4.43;3.42;;;;;;;20.53;39.28;96244.56;10362927;28;20054;-50
2021/12/26 21:26:37;;;;;;;4.50;4.03;;;;;;;20.54;39.09;96243.41;10363006;28;20413;-50
2021/12/26 21:31:57;;;;;;;5.30;3.95;;;;;;;20.53;39.09;96244.56;10362607;28;20552;-50
2021/12/26 21:37:16;;;;;;;4.47;3.72;;;;;;;20.54;39.15;96246.94;10375860;28;20042;-50
2021/12/26 21:42:37;;;;;;;4.47;3.88;;;;;;;20.54;39.08;96238.00;10376168;28;20046;-50
2021/12/26 21:47:57;;;;;;;3.85;3.47;;;;;;;20.55;39.05;96236.88;10355351;28;20042;-51
2021/12/26 21:53:18;;;;;;;4.18;3.33;;;;;;;20.57;39.02;96245.44;10374917;28;20096;-50
2021/12/26 21:58:38;;;;;;;3.78;3.38;;;;;;;20.55;39.08;96229.56;10362082;28;20061;-50
2021/12/26 22:03:57;;;;;;;4.50;3.65;;;;;;;20.55;39.07;96220.66;10374599;28;20038;-52
2021/12/26 22:09:17;;;;;;;4.15;3.53;;;;;;;20.55;39.06;96228.78;10367806;28;20050;-51
2021/12/26 22:14:36;;;;;;;3.70;3.30;;;;;;;20.54;39.15;96225.28;10369122;28;20065;-51
2021/12/26 22:19:56;;;;;;;3.85;3.45;;;;;;;20.53;39.02;96217.50;10369071;28;20050;-49
2021/12/26 22:25:18;;;;;;;4.10;3.70;;;;;;;20.51;38.98;96212.44;10382340;28;20485;-51
2021/12/26 22:30:37;;;;;;;4.25;3.83;;;;;;;20.51;39.08;96198.13;10369075;28;20613;-50
2021/12/26 22:35:57;;;;;;;4.63;3.97;;;;;;;20.50;39.13;96199.25;10368606;28;20053;-51
2021/12/26 22:41:17;;;;;;;4.18;3.78;;;;;;;20.50;39.16;96204.66;10367580;28;20057;-51
2021/12/26 22:46:36;;;;;;;3.92;3.42;;;;;;;20.48;39.18;96206.91;10367822;28;20577;-50
2021/12/26 22:51:56;;;;;;;5.43;4.22;;;;;;;20.45;37.43;96210.34;10364149;28;20108;-50
2021/12/26 22:57:15;;;;;;;12.43;5.05;;;;;;;20.44;38.50;96208.75;10365888;28;20058;-49
2021/12/26 23:02:34;;;;;;;6.75;4.82;;;;;;;20.44;38.63;96206.03;10358134;28;20049;-50
2021/12/26 23:07:54;;;;;;;7.05;4.88;;;;;;;20.43;38.21;96207.19;10364873;28;20664;-52
2021/12/26 23:13:14;;;;;;;7.65;5.40;;;;;;;20.42;38.69;96216.41;10361768;28;20057;-51
2021/12/26 23:18:34;;;;;;;8.98;4.90;;;;;;;20.39;39.03;96220.59;10361102;28;20485;-51
2021/12/26 23:23:54;;;;;;;8.18;4.60;;;;;;;20.38;39.57;96218.25;10360282;28;20049;-50
2021/12/26 23:29:14;;;;;;;7.60;4.53;;;;;;;20.36;39.91;96218.56;10355368;28;20544;-48
2021/12/26 23:34:34;;;;;;;6.18;4.78;;;;;;;20.37;40.15;96214.75;10362392;28;20084;-49
2021/12/26 23:39:57;;;;;;;8.90;4.40;;;;;;;20.35;40.35;96209.69;10347406;28;20058;-49
2021/12/26 23:45:21;;;;;;;7.32;4.45;;;;;;;20.35;40.59;96211.59;10363798;28;20046;-49
2021/12/26 23:50:41;;;;;;;7.53;4.65;;;;;;;20.35;40.83;96196.16;10348003;28;20474;-50
2021/12/26 23:56:04;;;;;;;7.32;4.32;;;;;;;20.33;41.09;96179.47;10346333;28;20081;-51
